sensor_id;sensor_type;location;lat;lon;timestamp;pressure;altitude;pressure_sealevel;temperature
24714;BMP280;12820;51.580;5.010;2023-02-24T00:01:12;101681.03;;;7.62
24714;BMP280;12820;51.580;5.010;2023-02-24T00:06:16;101669.34;;;7.64
24714;BMP280;12820;51.580;5.010;2023-02-24T00:11:18;101662.72;;;7.66
24714;BMP280;12820;51.580;5.010;2023-02-24T00:16:21;101660.22;;;7.69
24714;BMP280;12820;51.580;5.010;2023-02-24T00:21:28;101661.09;;;7.71
24714;BMP280;12820;51.580;5.010;2023-02-24T00:26:31;101657.78;;;7.75
24714;BMP280;12820;51.580;5.010;2023-02-24T00:31:34;101652.84;;;7.78
24714;BMP280;12820;51.580;5.010;2023-02-24T00:36:40;101638.69;;;7.81
24714;BMP280;12820;51.580;5.010;2023-02-24T00:41:45;101639.53;;;7.84
24714;BMP280;12820;51.580;5.010;2023-02-24T00:46:47;101642.91;;;7.86
24714;BMP280;12820;51.580;5.010;2023-02-24T00:51:49;101637.91;;;7.89
24714;BMP280;12820;51.580;5.010;2023-02-24T00:56:56;101624.59;;;7.93
24714;BMP280;12820;51.580;5.010;2023-02-24T01:01:58;101614.63;;;7.95
24714;BMP280;12820;51.580;5.010;2023-02-24T01:07:00;101600.47;;;7.97
24714;BMP280;12820;51.580;5.010;2023-02-24T01:12:06;101597.97;;;7.98
24714;BMP280;12820;51.580;5.010;2023-02-24T01:17:27;101591.34;;;8.00
24714;BMP280;12820;51.580;5.010;2023-02-24T01:22:29;101586.31;;;7.98
24714;BMP280;12820;51.580;5.010;2023-02-24T01:27:31;101585.50;;;7.99
24714;BMP280;12820;51.580;5.010;2023-02-24T01:32:33;101584.66;;;7.99
24714;BMP280;12820;51.580;5.010;2023-02-24T01:37:37;101582.13;;;7.98
24714;BMP280;12820;51.580;5.010;2023-02-24T01:42:40;101565.44;;;7.98
24714;BMP280;12820;51.580;5.010;2023-02-24T01:47:43;101561.22;;;7.97
24714;BMP280;12820;51.580;5.010;2023-02-24T01:52:49;101548.72;;;7.97
24714;BMP280;12820;51.580;5.010;2023-02-24T01:57:52;101540.41;;;7.97
24714;BMP280;12820;51.580;5.010;2023-02-24T02:02:56;101536.19;;;7.94
24714;BMP280;12820;51.580;5.010;2023-02-24T02:08:01;101526.16;;;7.91
24714;BMP280;12820;51.580;5.010;2023-02-24T02:13:04;101512.78;;;7.86
24714;BMP280;12820;51.580;5.010;2023-02-24T02:18:21;101506.03;;;7.80
24714;BMP280;12820;51.580;5.010;2023-02-24T02:23:57;101502.63;;;7.69
24714;BMP280;12820;51.580;5.010;2023-02-24T02:29:15;101489.22;;;7.58
24714;BMP280;12820;51.580;5.010;2023-02-24T02:50:06;101465.44;;;7.12
24714;BMP280;12820;51.580;5.010;2023-02-24T02:55:14;101459.47;;;6.99
24714;BMP280;12820;51.580;5.010;2023-02-24T03:00:27;101451.91;;;6.90
24714;BMP280;12820;51.580;5.010;2023-02-24T03:05:39;101452.59;;;6.79
24714;BMP280;12820;51.580;5.010;2023-02-24T03:10:49;101452.50;;;6.69
24714;BMP280;12820;51.580;5.010;2023-02-24T03:15:53;101456.53;;;6.58
24714;BMP280;12820;51.580;5.010;2023-02-24T03:21:05;101435.63;;;6.50
24714;BMP280;12820;51.580;5.010;2023-02-24T03:26:14;101428.91;;;6.43
24714;BMP280;12820;51.580;5.010;2023-02-24T03:31:31;101428.00;;;6.38
24714;BMP280;12820;51.580;5.010;2023-02-24T03:36:35;101414.59;;;6.31
24714;BMP280;12820;51.580;5.010;2023-02-24T03:41:44;101417.88;;;6.27
24714;BMP280;12820;51.580;5.010;2023-02-24T03:46:51;101410.31;;;6.21
24714;BMP280;12820;51.580;5.010;2023-02-24T04:02:30;101391.03;;;6.07
24714;BMP280;12820;51.580;5.010;2023-02-24T04:07:47;101380.13;;;6.03
24714;BMP280;12820;51.580;5.010;2023-02-24T04:18:25;101374.22;;;5.96
24714;BMP280;12820;51.580;5.010;2023-02-24T04:23:31;101379.19;;;5.93
24714;BMP280;12820;51.580;5.010;2023-02-24T04:28:34;101369.13;;;5.87
24714;BMP280;12820;51.580;5.010;2023-02-24T04:33:39;101363.28;;;5.85
24714;BMP280;12820;51.580;5.010;2023-02-24T04:38:43;101362.44;;;5.83
24714;BMP280;12820;51.580;5.010;2023-02-24T04:43:48;101351.63;;;5.83
24714;BMP280;12820;51.580;5.010;2023-02-24T04:48:51;101348.28;;;5.82
24714;BMP280;12820;51.580;5.010;2023-02-24T04:53:54;101352.47;;;5.83
24714;BMP280;12820;51.580;5.010;2023-02-24T04:58:56;101349.13;;;5.83
24714;BMP280;12820;51.580;5.010;2023-02-24T05:03:58;101340.78;;;5.82
24714;BMP280;12820;51.580;5.010;2023-02-24T05:09:01;101326.69;;;5.83
24714;BMP280;12820;51.580;5.010;2023-02-24T05:14:12;101317.53;;;5.83
24714;BMP280;12820;51.580;5.010;2023-02-24T05:19:18;101302.56;;;5.83
24714;BMP280;12820;51.580;5.010;2023-02-24T05:24:39;101307.50;;;5.80
24714;BMP280;12820;51.580;5.010;2023-02-24T05:29:41;101296.69;;;5.80
24714;BMP280;12820;51.580;5.010;2023-02-24T05:34:44;101296.69;;;5.78
24714;BMP280;12820;51.580;5.010;2023-02-24T05:39:46;101286.69;;;5.77
24714;BMP280;12820;51.580;5.010;2023-02-24T05:44:49;101293.31;;;5.75
24714;BMP280;12820;51.580;5.010;2023-02-24T05:49:51;101293.28;;;5.72
24714;BMP280;12820;51.580;5.010;2023-02-24T05:54:55;101275.81;;;5.69
24714;BMP280;12820;51.580;5.010;2023-02-24T05:59:57;101271.63;;;5.68
24714;BMP280;12820;51.580;5.010;2023-02-24T06:04:59;101262.44;;;5.66
24714;BMP280;12820;51.580;5.010;2023-02-24T06:10:02;101248.28;;;5.65
24714;BMP280;12820;51.580;5.010;2023-02-24T06:15:06;101242.44;;;5.63
24714;BMP280;12820;51.580;5.010;2023-02-24T06:20:09;101232.47;;;5.63
24714;BMP280;12820;51.580;5.010;2023-02-24T06:25:16;101212.50;;;5.63
24714;BMP280;12820;51.580;5.010;2023-02-24T06:30:23;101213.31;;;5.62
24714;BMP280;12820;51.580;5.010;2023-02-24T06:35:26;101197.56;;;5.63
24714;BMP280;12820;51.580;5.010;2023-02-24T06:40:28;101193.44;;;5.65
24714;BMP280;12820;51.580;5.010;2023-02-24T06:45:32;101201.78;;;5.67
24714;BMP280;12820;51.580;5.010;2023-02-24T06:50:34;101195.97;;;5.68
24714;BMP280;12820;51.580;5.010;2023-02-24T06:55:36;101186.03;;;5.70
24714;BMP280;12820;51.580;5.010;2023-02-24T07:00:38;101187.72;;;5.74
24714;BMP280;12820;51.580;5.010;2023-02-24T07:05:49;101176.16;;;5.79
24714;BMP280;12820;51.580;5.010;2023-02-24T07:10:52;101168.72;;;5.85
24714;BMP280;12820;51.580;5.010;2023-02-24T07:15:54;101156.31;;;5.88
24714;BMP280;12820;51.580;5.010;2023-02-24T07:20:59;101158.84;;;5.94
24714;BMP280;12820;51.580;5.010;2023-02-24T07:26:14;101163.91;;;6.03
24714;BMP280;12820;51.580;5.010;2023-02-24T07:31:18;101162.34;;;6.12
24714;BMP280;12820;51.580;5.010;2023-02-24T07:36:23;101155.78;;;6.24
24714;BMP280;12820;51.580;5.010;2023-02-24T07:41:30;101163.34;;;6.33
24714;BMP280;12820;51.580;5.010;2023-02-24T07:46:32;101144.28;;;6.42
24714;BMP280;12820;51.580;5.010;2023-02-24T07:51:35;101149.31;;;6.51
24714;BMP280;12820;51.580;5.010;2023-02-24T07:56:37;101136.06;;;6.60
24714;BMP280;12820;51.580;5.010;2023-02-24T08:01:47;101124.50;;;6.68
24714;BMP280;12820;51.580;5.010;2023-02-24T08:06:52;101109.53;;;6.75
24714;BMP280;12820;51.580;5.010;2023-02-24T08:11:57;101097.97;;;6.88
24714;BMP280;12820;51.580;5.010;2023-02-24T08:17:01;101093.00;;;6.99
24714;BMP280;12820;51.580;5.010;2023-02-24T08:22:08;101090.53;;;7.12
24714;BMP280;12820;51.580;5.010;2023-02-24T08:27:25;101086.44;;;7.29
24714;BMP280;12820;51.580;5.010;2023-02-24T08:32:31;101080.63;;;7.42
24714;BMP280;12820;51.580;5.010;2023-02-24T08:37:49;101068.16;;;7.55
24714;BMP280;12820;51.580;5.010;2023-02-24T08:42:51;101058.16;;;7.69
24714;BMP280;12820;51.580;5.010;2023-02-24T08:47:54;101052.34;;;7.80
24714;BMP280;12820;51.580;5.010;2023-02-24T08:53:01;101041.50;;;7.89
24714;BMP280;12820;51.580;5.010;2023-02-24T08:58:04;101029.84;;;7.99
24714;BMP280;12820;51.580;5.010;2023-02-24T09:03:12;101030.66;;;8.20
24714;BMP280;12820;51.580;5.010;2023-02-24T09:08:17;101014.72;;;8.46
24714;BMP280;12820;51.580;5.010;2023-02-24T09:13:25;101012.13;;;8.74
24714;BMP280;12820;51.580;5.010;2023-02-24T09:18:33;100991.94;;;9.02
24714;BMP280;12820;51.580;5.010;2023-02-24T09:23:39;100986.00;;;9.19
24714;BMP280;12820;51.580;5.010;2023-02-24T09:28:47;100973.31;;;9.36
24714;BMP280;12820;51.580;5.010;2023-02-24T09:33:56;100977.31;;;9.59
24714;BMP280;12820;51.580;5.010;2023-02-24T09:39:02;100966.34;;;9.72
24714;BMP280;12820;51.580;5.010;2023-02-24T09:44:11;100961.25;;;9.82
24714;BMP280;12820;51.580;5.010;2023-02-24T09:49:29;100962.91;;;9.86
24714;BMP280;12820;51.580;5.010;2023-02-24T09:54:43;100953.72;;;9.86
24714;BMP280;12820;51.580;5.010;2023-02-24T10:00:09;100939.44;;;9.90
24714;BMP280;12820;51.580;5.010;2023-02-24T10:05:45;100945.19;;;9.99
24714;BMP280;12820;51.580;5.010;2023-02-24T10:10:51;100936.72;;;10.09
24714;BMP280;12820;51.580;5.010;2023-02-24T10:16:13;100934.09;;;10.19
24714;BMP280;12820;51.580;5.010;2023-02-24T10:21:36;100947.50;;;10.18
24714;BMP280;12820;51.580;5.010;2023-02-24T10:32:25;100924.97;;;10.11
24714;BMP280;12820;51.580;5.010;2023-02-24T10:37:34;100905.69;;;10.14
24714;BMP280;12820;51.580;5.010;2023-02-24T10:42:38;100906.50;;;10.16
24714;BMP280;12820;51.580;5.010;2023-02-24T10:47:55;100913.13;;;10.23
24714;BMP280;12820;51.580;5.010;2023-02-24T10:53:12;100902.97;;;10.30
24714;BMP280;12820;51.580;5.010;2023-02-24T10:58:35;100899.56;;;10.37
24714;BMP280;12820;51.580;5.010;2023-02-24T11:04:01;100891.13;;;10.39
24714;BMP280;12820;51.580;5.010;2023-02-24T11:14:33;100876.94;;;10.38
24714;BMP280;12820;51.580;5.010;2023-02-24T11:20:00;100864.31;;;10.41
24714;BMP280;12820;51.580;5.010;2023-02-24T11:25:22;100870.97;;;10.44
24714;BMP280;12820;51.580;5.010;2023-02-24T11:35:49;100843.31;;;10.47
24714;BMP280;12820;51.580;5.010;2023-02-24T11:41:04;100854.97;;;10.50
24714;BMP280;12820;51.580;5.010;2023-02-24T11:46:10;100843.25;;;10.49
24714;BMP280;12820;51.580;5.010;2023-02-24T11:51:23;100838.31;;;10.45
24714;BMP280;12820;51.580;5.010;2023-02-24T11:56:30;100826.59;;;10.44
24714;BMP280;12820;51.580;5.010;2023-02-24T12:12:03;100802.38;;;10.39
24714;BMP280;12820;51.580;5.010;2023-02-24T12:22:29;100792.38;;;10.36
24714;BMP280;12820;51.580;5.010;2023-02-24T12:33:18;100781.56;;;10.29
24714;BMP280;12820;51.580;5.010;2023-02-24T12:43:57;100759.13;;;10.19
24714;BMP280;12820;51.580;5.010;2023-02-24T12:54:27;100742.53;;;10.10
24714;BMP280;12820;51.580;5.010;2023-02-24T12:59:33;100745.97;;;10.03
24714;BMP280;12820;51.580;5.010;2023-02-24T13:05:01;100744.38;;;9.97
24714;BMP280;12820;51.580;5.010;2023-02-24T13:15:25;100727.75;;;9.88
24714;BMP280;12820;51.580;5.010;2023-02-24T13:20:32;100723.56;;;9.90
24714;BMP280;12820;51.580;5.010;2023-02-24T13:25:35;100724.34;;;9.94
24714;BMP280;12820;51.580;5.010;2023-02-24T13:30:42;100701.53;;;10.09
24714;BMP280;12820;51.580;5.010;2023-02-24T13:35:51;100683.00;;;10.16
24714;BMP280;12820;51.580;5.010;2023-02-24T13:41:05;100688.00;;;10.16
24714;BMP280;12820;51.580;5.010;2023-02-24T13:46:17;100665.41;;;10.17
24714;BMP280;12820;51.580;5.010;2023-02-24T13:51:46;100678.66;;;10.27
24714;BMP280;12820;51.580;5.010;2023-02-24T13:57:43;100674.22;;;10.43
24714;BMP280;12820;51.580;5.010;2023-02-24T14:02:42;100661.50;;;10.52
24714;BMP280;12820;51.580;5.010;2023-02-24T14:07:48;100665.69;;;10.50
24714;BMP280;12820;51.580;5.010;2023-02-24T14:13:18;100664.88;;;10.49
24714;BMP280;12820;51.580;5.010;2023-02-24T14:18:25;100647.19;;;10.54
24714;BMP280;12820;51.580;5.010;2023-02-24T14:23:30;100653.19;;;10.94
24714;BMP280;12820;51.580;5.010;2023-02-24T14:28:35;100636.09;;;11.89
24714;BMP280;12820;51.580;5.010;2023-02-24T14:33:39;100615.13;;;15.66
24714;BMP280;12820;51.580;5.010;2023-02-24T14:38:43;100621.78;;;16.12
24714;BMP280;12820;51.580;5.010;2023-02-24T14:43:46;100638.56;;;15.71
24714;BMP280;12820;51.580;5.010;2023-02-24T14:48:53;100630.19;;;14.78
24714;BMP280;12820;51.580;5.010;2023-02-24T14:54:02;100636.28;;;13.98
24714;BMP280;12820;51.580;5.010;2023-02-24T14:59:13;100636.28;;;13.70
24714;BMP280;12820;51.580;5.010;2023-02-24T15:04:37;100616.94;;;13.97
24714;BMP280;12820;51.580;5.010;2023-02-24T15:09:41;100625.22;;;13.74
24714;BMP280;12820;51.580;5.010;2023-02-24T15:15:16;100663.31;;;13.38
24714;BMP280;12820;51.580;5.010;2023-02-24T15:20:31;100643.75;;;12.85
24714;BMP280;12820;51.580;5.010;2023-02-24T15:25:49;100645.53;;;12.49
24714;BMP280;12820;51.580;5.010;2023-02-24T15:36:05;100623.31;;;13.25
24714;BMP280;12820;51.580;5.010;2023-02-24T15:41:10;100632.03;;;12.84
24714;BMP280;12820;51.580;5.010;2023-02-24T15:46:31;100620.78;;;12.96
24714;BMP280;12820;51.580;5.010;2023-02-24T15:51:39;100611.09;;;12.81
24714;BMP280;12820;51.580;5.010;2023-02-24T15:56:42;100637.09;;;12.84
24714;BMP280;12820;51.580;5.010;2023-02-24T16:01:44;100622.63;;;12.58
24714;BMP280;12820;51.580;5.010;2023-02-24T16:06:49;100617.69;;;12.21
24714;BMP280;12820;51.580;5.010;2023-02-24T16:11:55;100627.63;;;11.93
24714;BMP280;12820;51.580;5.010;2023-02-24T16:16:58;100631.44;;;11.72
24714;BMP280;12820;51.580;5.010;2023-02-24T16:22:02;100637.69;;;11.56
24714;BMP280;12820;51.580;5.010;2023-02-24T16:27:04;100632.25;;;11.35
24714;BMP280;12820;51.580;5.010;2023-02-24T16:32:09;100641.91;;;11.13
24714;BMP280;12820;51.580;5.010;2023-02-24T16:37:21;100650.78;;;10.88
24714;BMP280;12820;51.580;5.010;2023-02-24T16:42:23;100639.44;;;10.67
24714;BMP280;12820;51.580;5.010;2023-02-24T16:47:26;100644.00;;;10.46
24714;BMP280;12820;51.580;5.010;2023-02-24T16:52:28;100652.69;;;10.28
24714;BMP280;12820;51.580;5.010;2023-02-24T16:57:30;100651.25;;;10.12
24714;BMP280;12820;51.580;5.010;2023-02-24T17:02:32;100656.50;;;9.97
24714;BMP280;12820;51.580;5.010;2023-02-24T17:07:34;100660.91;;;9.82
24714;BMP280;12820;51.580;5.010;2023-02-24T17:12:40;100666.91;;;9.70
24714;BMP280;12820;51.580;5.010;2023-02-24T17:17:42;100660.41;;;9.56
24714;BMP280;12820;51.580;5.010;2023-02-24T17:22:44;100667.22;;;9.45
24714;BMP280;12820;51.580;5.010;2023-02-24T17:27:47;100672.41;;;9.33
24714;BMP280;12820;51.580;5.010;2023-02-24T17:32:49;100674.19;;;9.23
24714;BMP280;12820;51.580;5.010;2023-02-24T17:37:51;100681.00;;;9.12
24714;BMP280;12820;51.580;5.010;2023-02-24T17:42:53;100695.28;;;9.05
24714;BMP280;12820;51.580;5.010;2023-02-24T17:47:56;100700.31;;;9.04
24714;BMP280;12820;51.580;5.010;2023-02-24T17:52:58;100712.00;;;9.05
24714;BMP280;12820;51.580;5.010;2023-02-24T17:58:00;100714.53;;;9.02
24714;BMP280;12820;51.580;5.010;2023-02-24T18:03:03;100720.41;;;9.00
24714;BMP280;12820;51.580;5.010;2023-02-24T18:08:05;100715.44;;;8.94
24714;BMP280;12820;51.580;5.010;2023-02-24T18:13:07;100723.84;;;8.87
24714;BMP280;12820;51.580;5.010;2023-02-24T18:18:09;100731.47;;;8.78
24714;BMP280;12820;51.580;5.010;2023-02-24T18:23:12;100733.16;;;8.73
24714;BMP280;12820;51.580;5.010;2023-02-24T18:28:14;100726.56;;;8.67
24714;BMP280;12820;51.580;5.010;2023-02-24T18:33:16;100730.75;;;8.66
24714;BMP280;12820;51.580;5.010;2023-02-24T18:38:18;100729.06;;;8.67
24714;BMP280;12820;51.580;5.010;2023-02-24T18:43:20;100738.25;;;8.63
24714;BMP280;12820;51.580;5.010;2023-02-24T18:48:23;100753.34;;;8.59
24714;BMP280;12820;51.580;5.010;2023-02-24T18:53:28;100738.34;;;8.54
24714;BMP280;12820;51.580;5.010;2023-02-24T18:58:31;100739.22;;;8.51
24714;BMP280;12820;51.580;5.010;2023-02-24T19:03:33;100766.75;;;8.51
24714;BMP280;12820;51.580;5.010;2023-02-24T19:08:36;100762.59;;;8.51
24714;BMP280;12820;51.580;5.010;2023-02-24T19:13:38;100770.94;;;8.52
24714;BMP280;12820;51.580;5.010;2023-02-24T19:18:41;100766.75;;;8.51
24714;BMP280;12820;51.580;5.010;2023-02-24T19:23:43;100784.28;;;8.49
24714;BMP280;12820;51.580;5.010;2023-02-24T19:28:46;100775.13;;;8.47
24714;BMP280;12820;51.580;5.010;2023-02-24T19:33:56;100773.47;;;8.46
24714;BMP280;12820;51.580;5.010;2023-02-24T19:39:01;100767.63;;;8.45
24714;BMP280;12820;51.580;5.010;2023-02-24T19:44:03;100779.34;;;8.42
24714;BMP280;12820;51.580;5.010;2023-02-24T19:49:05;100766.81;;;8.40
24714;BMP280;12820;51.580;5.010;2023-02-24T19:54:10;100776.88;;;8.39
24714;BMP280;12820;51.580;5.010;2023-02-24T19:59:12;100771.03;;;8.35
24714;BMP280;12820;51.580;5.010;2023-02-24T20:04:14;100778.56;;;8.31
24714;BMP280;12820;51.580;5.010;2023-02-24T20:09:18;100790.28;;;8.26
24714;BMP280;12820;51.580;5.010;2023-02-24T20:14:26;100799.53;;;8.18
24714;BMP280;12820;51.580;5.010;2023-02-24T20:19:28;100800.38;;;8.15
24714;BMP280;12820;51.580;5.010;2023-02-24T20:24:32;100793.75;;;8.11
24714;BMP280;12820;51.580;5.010;2023-02-24T20:29:35;100802.94;;;8.06
24714;BMP280;12820;51.580;5.010;2023-02-24T20:34:38;100800.44;;;8.00
24714;BMP280;12820;51.580;5.010;2023-02-24T20:39:41;100811.28;;;7.96
24714;BMP280;12820;51.580;5.010;2023-02-24T20:44:43;100810.44;;;7.94
24714;BMP280;12820;51.580;5.010;2023-02-24T20:49:45;100816.31;;;7.92
24714;BMP280;12820;51.580;5.010;2023-02-24T20:54:47;100825.47;;;7.88
24714;BMP280;12820;51.580;5.010;2023-02-24T20:59:50;100842.19;;;7.86
24714;BMP280;12820;51.580;5.010;2023-02-24T21:05:05;100843.88;;;7.81
24714;BMP280;12820;51.580;5.010;2023-02-24T21:10:07;100824.69;;;7.76
24714;BMP280;12820;51.580;5.010;2023-02-24T21:15:10;100841.38;;;7.71
24714;BMP280;12820;51.580;5.010;2023-02-24T21:20:15;100847.22;;;7.69
24714;BMP280;12820;51.580;5.010;2023-02-24T21:25:17;100849.72;;;7.69
24714;BMP280;12820;51.580;5.010;2023-02-24T21:30:20;100851.41;;;7.67
24714;BMP280;12820;51.580;5.010;2023-02-24T21:35:22;100846.41;;;7.65
24714;BMP280;12820;51.580;5.010;2023-02-24T21:40:24;100842.25;;;7.60
24714;BMP280;12820;51.580;5.010;2023-02-24T21:45:26;100858.09;;;7.56
24714;BMP280;12820;51.580;5.010;2023-02-24T21:50:28;100863.09;;;7.52
24714;BMP280;12820;51.580;5.010;2023-02-24T21:55:30;100865.59;;;7.50
24714;BMP280;12820;51.580;5.010;2023-02-24T22:00:34;100862.28;;;7.51
24714;BMP280;12820;51.580;5.010;2023-02-24T22:05:36;100861.44;;;7.54
24714;BMP280;12820;51.580;5.010;2023-02-24T22:10:38;100859.75;;;7.56
24714;BMP280;12820;51.580;5.010;2023-02-24T22:15:40;100868.06;;;7.59
24714;BMP280;12820;51.580;5.010;2023-02-24T22:20:43;100865.59;;;7.61
24714;BMP280;12820;51.580;5.010;2023-02-24T22:25:45;100853.91;;;7.61
24714;BMP280;12820;51.580;5.010;2023-02-24T22:30:54;100853.91;;;7.60
24714;BMP280;12820;51.580;5.010;2023-02-24T22:36:01;100864.75;;;7.57
24714;BMP280;12820;51.580;5.010;2023-02-24T22:41:08;100863.09;;;7.56
24714;BMP280;12820;51.580;5.010;2023-02-24T22:46:16;100863.94;;;7.57
24714;BMP280;12820;51.580;5.010;2023-02-24T22:51:18;100874.78;;;7.59
24714;BMP280;12820;51.580;5.010;2023-02-24T22:56:23;100887.25;;;7.60
24714;BMP280;12820;51.580;5.010;2023-02-24T23:01:31;100909.78;;;7.62
24714;BMP280;12820;51.580;5.010;2023-02-24T23:06:34;100886.44;;;7.58
24714;BMP280;12820;51.580;5.010;2023-02-24T23:11:39;100882.28;;;7.53
24714;BMP280;12820;51.580;5.010;2023-02-24T23:16:44;100887.28;;;7.45
24714;BMP280;12820;51.580;5.010;2023-02-24T23:21:50;100888.09;;;7.40
24714;BMP280;12820;51.580;5.010;2023-02-24T23:26:53;100883.13;;;7.34
24714;BMP280;12820;51.580;5.010;2023-02-24T23:31:58;100893.97;;;7.29
24714;BMP280;12820;51.580;5.010;2023-02-24T23:37:00;100899.78;;;7.24
24714;BMP280;12820;51.580;5.010;2023-02-24T23:42:02;100904.78;;;7.18
24714;BMP280;12820;51.580;5.010;2023-02-24T23:47:04;100903.94;;;7.11
24714;BMP280;12820;51.580;5.010;2023-02-24T23:52:06;100909.78;;;7.08
24714;BMP280;12820;51.580;5.010;2023-02-24T23:57:09;100911.44;;;7.04
